Terminal Aerodrome Forecast
Issued by NWS Charleston, WV

Current Version | Previous Version | Graphics & Text | Print | Product List | Glossary On
Versions: 1 2 3 4 5 6 7 8 9 10 11 12 13 14 15 16 17 18 19 20 21 22 23 24 25
479
FTUS41 KRLX 152332
TAFCRW
TAF
KCRW 152332Z 1600/1624 00000KT 4SM -RA BR OVC009
     FM160300 VRB03KT 3SM -RA BR OVC006
     FM160700 00000KT 2SM -RA BR OVC003
     FM161300 00000KT 4SM BR OVC004
     FM161600 00000KT P6SM OVC008
     FM161800 00000KT P6SM OVC013=

USA.gov is the U.S. government's official web portal to all federal, state and local government web resources and services.